Time;durP1;ratioP1;P1;durP2;ratioP2;P2;SDS_P1;SDS_P2;PMS_P1;PMS_P2;Temp;Humidity;BMP_temperature;BMP_pressure;BME280_temperature;BME280_humidity;BME280_pressure;Samples;Min_cycle;Max_cycle;Signal;HPM_P1;HPM_P2
2022/10/17 00:00:23;;;;;;;11.38;8.70;;;;;;;14.38;100.00;101447.34;5049280;28;20040;-76
2022/10/17 00:02:48;;;;;;;18.55;9.55;;;;;;;14.43;100.00;101440.81;5063447;28;20032;-78
2022/10/17 00:05:14;;;;;;;13.00;10.20;;;;;;;14.53;100.00;101439.66;5051061;28;20035;-78
2022/10/17 00:07:39;;;;;;;14.05;8.55;;;;;;;14.40;100.00;101440.16;5045751;28;20052;-78
2022/10/17 00:10:06;;;;;;;11.90;9.82;;;;;;;14.44;100.00;101439.84;5063278;28;20029;-79
2022/10/17 00:12:32;;;;;;;16.95;9.25;;;;;;;14.44;100.00;101440.66;5063678;28;20040;-77
2022/10/17 00:14:57;;;;;;;12.75;7.78;;;;;;;14.60;100.00;101432.03;5064771;28;20094;-77
2022/10/17 00:17:23;;;;;;;23.05;7.78;;;;;;;14.55;100.00;101434.28;5054215;28;20036;-79
2022/10/17 00:19:48;;;;;;;11.77;6.72;;;;;;;14.54;100.00;101424.81;5051261;28;20032;-79
2022/10/17 00:22:14;;;;;;;15.05;7.20;;;;;;;14.66;100.00;101433.94;5065073;28;20028;-74
2022/10/17 00:24:39;;;;;;;9.57;6.85;;;;;;;14.65;100.00;101429.69;5067651;28;20036;-77
2022/10/17 00:27:04;;;;;;;12.70;6.40;;;;;;;14.57;100.00;101425.31;5048518;28;20032;-77
2022/10/17 00:29:30;;;;;;;10.60;6.43;;;;;;;14.61;100.00;101425.81;5046682;28;20541;-77
2022/10/17 00:31:57;;;;;;;11.35;7.00;;;;;;;14.54;100.00;101436.06;5038183;28;20636;-77
2022/10/17 00:34:23;;;;;;;10.82;7.25;;;;;;;14.60;100.00;101425.00;5043331;28;20618;-78
2022/10/17 00:36:50;;;;;;;10.23;6.80;;;;;;;14.60;100.00;101425.00;5081535;28;20099;-79
2022/10/17 00:39:16;;;;;;;8.05;6.38;;;;;;;14.59;100.00;101427.78;5050603;28;20166;-77
2022/10/17 00:41:41;;;;;;;13.93;6.90;;;;;;;14.62;100.00;101437.88;5063340;28;20040;-78
2022/10/17 00:44:29;;;;;;;13.90;7.20;;;;;;;14.60;100.00;101422.38;5046004;28;20473;-78
2022/10/17 00:46:56;;;;;;;10.13;6.85;;;;;;;14.53;100.00;101424.00;5056657;28;20033;-78
2022/10/17 00:49:25;;;;;;;14.45;6.85;;;;;;;14.58;100.00;101432.19;5047050;28;20020;-78
2022/10/17 00:52:00;;;;;;;16.00;7.90;;;;;;;14.53;100.00;101434.44;5064008;28;20036;-79
2022/10/17 00:54:32;;;;;;;10.65;6.72;;;;;;;14.58;100.00;101424.34;5048495;28;20056;-77
2022/10/17 00:56:58;;;;;;;15.05;7.13;;;;;;;14.56;100.00;101422.84;5055158;28;20059;-79
2022/10/17 00:59:28;;;;;;;10.52;7.32;;;;;;;14.57;100.00;101424.50;5061225;28;20131;-76
2022/10/17 01:02:14;;;;;;;18.63;7.85;;;;;;;14.45;100.00;101431.84;5060916;28;20029;-78
2022/10/17 01:04:43;;;;;;;11.85;7.57;;;;;;;14.51;100.00;101431.19;5052331;28;20495;-78
2022/10/17 01:07:09;;;;;;;13.90;8.82;;;;;;;14.47;100.00;101429.88;5065870;28;20032;-79
2022/10/17 01:09:35;;;;;;;13.73;8.18;;;;;;;14.46;100.00;101430.06;5047259;28;20409;-78
2022/10/17 01:12:03;;;;;;;18.90;8.38;;;;;;;14.38;100.00;101436.09;5052422;28;20036;-78
2022/10/17 01:14:47;;;;;;;11.73;7.40;;;;;;;14.39;100.00;101445.53;5065908;28;20040;-78
2022/10/17 01:17:42;;;;;;;10.43;7.35;;;;;;;14.46;100.00;101441.28;5061504;28;20385;-78
2022/10/17 01:20:28;;;;;;;14.02;7.63;;;;;;;14.41;100.00;101436.59;5063559;28;20043;-78
2022/10/17 01:23:36;;;;;;;13.30;7.28;;;;;;;14.49;100.00;101435.75;5064054;28;20432;-76
2022/10/17 01:26:47;;;;;;;14.23;7.28;;;;;;;14.42;100.00;101442.59;5066097;28;20028;-77
2022/10/17 01:29:40;;;;;;;11.30;7.10;;;;;;;14.34;100.00;101432.19;5068739;28;20036;-80
2022/10/17 01:32:21;;;;;;;14.32;7.55;;;;;;;14.40;100.00;101440.16;5057923;28;20037;-78
2022/10/17 01:34:53;;;;;;;12.57;7.50;;;;;;;14.37;100.00;101432.69;5043992;28;20064;-79
2022/10/17 01:37:22;;;;;;;13.27;7.50;;;;;;;14.27;100.00;101428.63;5050587;28;20024;-77
2022/10/17 01:39:58;;;;;;;10.50;7.05;;;;;;;14.31;100.00;101427.31;5046865;28;20081;-78
2022/10/17 01:42:32;;;;;;;11.75;7.68;;;;;;;14.23;100.00;101429.94;5095466;28;20407;-77
2022/10/17 01:45:41;;;;;;;15.60;7.57;;;;;;;14.24;100.00;101428.94;5063923;28;20059;-78
2022/10/17 01:48:13;;;;;;;12.13;7.72;;;;;;;14.30;100.00;101416.06;5041438;28;20124;-78
2022/10/17 01:50:53;;;;;;;16.15;9.70;;;;;;;14.27;100.00;101405.94;5069888;28;20043;-77
2022/10/17 01:53:33;;;;;;;15.85;10.95;;;;;;;14.17;100.00;101413.16;5059568;28;20032;-77
2022/10/17 01:56:02;;;;;;;20.90;12.85;;;;;;;14.15;100.00;101413.31;5076800;28;20032;-78
2022/10/17 01:58:32;;;;;;;23.67;12.77;;;;;;;14.12;100.00;101410.22;5081619;28;20032;-79
2022/10/17 02:01:01;;;;;;;18.48;12.20;;;;;;;14.12;100.00;101412.81;5078476;28;20070;-77
2022/10/17 02:03:33;;;;;;;20.90;11.35;;;;;;;14.23;100.00;101414.28;5061012;28;20643;-77
2022/10/17 02:05:59;;;;;;;19.10;11.65;;;;;;;14.13;100.00;101411.84;5072615;28;20107;-77
2022/10/17 02:08:43;;;;;;;14.68;9.18;;;;;;;14.10;100.00;101412.16;5063982;28;20032;-77
2022/10/17 02:11:20;;;;;;;11.57;8.48;;;;;;;14.10;100.00;101405.16;5046769;28;20029;-78
2022/10/17 02:13:51;;;;;;;13.30;8.82;;;;;;;14.10;100.00;101397.31;5060366;28;20040;-78
2022/10/17 02:16:50;;;;;;;10.93;7.95;;;;;;;14.10;100.00;101402.53;5051939;28;20047;-78
2022/10/17 02:19:24;;;;;;;15.05;8.18;;;;;;;14.12;100.00;101400.59;5050486;28;20040;-79
2022/10/17 02:22:05;;;;;;;11.05;7.70;;;;;;;14.15;100.00;101400.25;5045500;28;20430;-78
2022/10/17 02:24:49;;;;;;;13.07;8.18;;;;;;;14.08;100.00;101409.72;5061881;28;20043;-78
2022/10/17 02:27:50;;;;;;;14.27;8.23;;;;;;;14.01;100.00;101396.53;5082352;28;20101;-77
2022/10/17 02:30:25;;;;;;;12.30;7.45;;;;;;;14.07;100.00;101405.50;5055638;28;20178;-78
2022/10/17 02:32:57;;;;;;;11.98;8.43;;;;;;;13.97;100.00;101397.00;5073262;28;20032;-77
2022/10/17 02:35:28;;;;;;;11.98;7.68;;;;;;;13.90;100.00;101398.63;5053454;28;20039;-78
2022/10/17 02:37:54;;;;;;;18.70;8.77;;;;;;;13.92;100.00;101401.91;5065702;28;20074;-77
2022/10/17 02:40:23;;;;;;;11.18;7.68;;;;;;;13.90;100.00;101403.84;5060314;28;20035;-77
2022/10/17 02:42:53;;;;;;;15.55;8.50;;;;;;;13.91;100.00;101408.91;5066858;28;20040;-77
2022/10/17 02:45:19;;;;;;;10.40;7.22;;;;;;;13.87;100.00;101401.59;5065374;28;20024;-78
2022/10/17 02:48:03;;;;;;;14.48;8.25;;;;;;;13.86;100.00;101398.16;5059905;28;20075;-78
2022/10/17 02:51:06;;;;;;;13.68;8.20;;;;;;;14.01;100.00;101391.31;5063903;28;20569;-77
2022/10/17 02:53:51;;;;;;;15.52;7.85;;;;;;;13.91;100.00;101392.47;4977734;28;20073;-78
2022/10/17 02:56:19;;;;;;;11.88;7.60;;;;;;;13.82;100.00;101389.88;5058832;28;20058;-77
2022/10/17 02:58:49;;;;;;;11.68;7.15;;;;;;;13.84;100.00;101394.88;5075274;28;20104;-78
2022/10/17 03:01:16;;;;;;;13.52;8.20;;;;;;;13.89;100.00;101405.66;5044150;28;20033;-78
2022/10/17 03:03:41;;;;;;;15.40;8.73;;;;;;;13.89;100.00;101402.25;5062243;28;20143;-77
2022/10/17 03:06:07;;;;;;;19.13;8.98;;;;;;;13.99;100.00;101395.88;5059710;28;20467;-77
2022/10/17 03:08:32;;;;;;;24.75;9.18;;;;;;;13.89;100.00;101397.84;5059682;28;20045;-77
2022/10/17 03:10:59;;;;;;;15.07;10.32;;;;;;;13.90;100.00;101398.63;5056794;28;20029;-78
2022/10/17 03:13:26;;;;;;;22.40;10.38;;;;;;;13.91;100.00;101390.66;5042164;28;20032;-75
2022/10/17 03:15:52;;;;;;;16.63;10.88;;;;;;;14.00;100.00;101389.69;5075131;28;20094;-77
2022/10/17 03:18:18;;;;;;;13.23;9.85;;;;;;;14.06;100.00;101393.44;5045381;28;20033;-78
2022/10/17 03:20:45;;;;;;;18.05;11.23;;;;;;;14.04;100.00;101395.38;5039570;28;20033;-78
2022/10/17 03:23:10;;;;;;;14.57;9.45;;;;;;;14.04;100.00;101392.78;5094929;28;20039;-78
2022/10/17 03:25:36;;;;;;;15.70;9.23;;;;;;;14.05;100.00;101398.81;5056969;28;20154;-76
2022/10/17 03:28:01;;;;;;;14.13;9.35;;;;;;;14.05;100.00;101409.22;5044668;28;20477;-77
2022/10/17 03:30:27;;;;;;;13.98;8.13;;;;;;;13.95;100.00;101407.59;5063607;28;20032;-78
2022/10/17 03:32:53;;;;;;;14.88;8.10;;;;;;;13.93;100.00;101406.94;5091038;28;20549;-78
2022/10/17 03:35:18;;;;;;;14.45;8.20;;;;;;;13.88;100.00;101411.88;5045952;28;20090;-76
2022/10/17 03:37:47;;;;;;;24.90;8.77;;;;;;;13.91;100.00;101416.72;5060191;28;20491;-77
2022/10/17 03:40:13;;;;;;;14.15;8.55;;;;;;;13.89;100.00;101420.50;5045954;28;20052;-78
2022/10/17 03:42:39;;;;;;;18.90;10.00;;;;;;;13.88;100.00;101429.28;5063081;28;20509;-77
2022/10/17 03:45:05;;;;;;;16.95;8.40;;;;;;;13.80;100.00;101422.25;5059613;28;20074;-78
2022/10/17 03:47:30;;;;;;;12.65;7.80;;;;;;;13.79;100.00;101434.50;5062280;28;20051;-77
2022/10/17 03:49:56;;;;;;;15.13;8.57;;;;;;;13.88;100.00;101435.31;5058051;28;20032;-77
2022/10/17 03:52:22;;;;;;;15.80;8.85;;;;;;;13.93;100.00;101432.22;5077110;28;20555;-77
2022/10/17 03:54:49;;;;;;;15.02;8.52;;;;;;;13.95;100.00;101430.25;5047631;28;20029;-76
2022/10/17 03:57:16;;;;;;;20.48;10.52;;;;;;;13.98;100.00;101446.38;5057102;28;20115;-77
2022/10/17 03:59:41;;;;;;;14.00;9.15;;;;;;;14.07;100.00;101442.00;5061049;28;20075;-77
2022/10/17 04:02:13;;;;;;;14.50;9.15;;;;;;;14.05;100.00;101443.94;5069301;28;20056;-76
2022/10/17 04:04:38;;;;;;;15.10;9.27;;;;;;;14.08;100.00;101440.19;5063123;28;20434;-77
2022/10/17 04:07:04;;;;;;;20.63;9.40;;;;;;;13.95;100.00;101436.28;5055758;28;20090;-76
2022/10/17 04:09:29;;;;;;;16.13;9.55;;;;;;;14.06;100.00;101436.94;5048492;28;20037;-77
2022/10/17 04:12:00;;;;;;;17.27;9.40;;;;;;;13.98;100.00;101440.38;5048365;28;20033;-76
2022/10/17 04:14:25;;;;;;;18.00;9.73;;;;;;;13.97;100.00;101431.72;5042651;28;20776;-77
2022/10/17 04:16:52;;;;;;;19.55;12.27;;;;;;;14.02;100.00;101426.03;5044039;28;20024;-78
2022/10/17 04:19:19;;;;;;;21.33;14.68;;;;;;;14.06;100.00;101424.72;5049713;28;20020;-77
2022/10/17 04:21:45;;;;;;;19.65;12.68;;;;;;;14.00;100.00;101423.56;5065690;28;20060;-77
2022/10/17 04:24:12;;;;;;;18.65;11.00;;;;;;;14.06;100.00;101419.50;5047814;28;20178;-77
2022/10/17 04:27:10;;;;;;;14.13;9.43;;;;;;;14.09;100.00;101424.41;5041399;28;20516;-78
2022/10/17 04:29:39;;;;;;;17.60;9.98;;;;;;;14.23;100.00;101430.75;5064996;28;20080;-77
2022/10/17 04:32:38;;;;;;;18.27;9.38;;;;;;;14.14;100.00;101422.09;5060026;28;20098;-77
2022/10/17 04:35:11;;;;;;;17.20;9.63;;;;;;;14.20;100.00;101433.66;5074606;28;20733;-77
2022/10/17 04:37:40;;;;;;;21.63;11.43;;;;;;;14.18;100.00;101435.63;5061701;28;20033;-76
2022/10/17 04:40:11;;;;;;;18.35;11.65;;;;;;;14.11;100.00;101435.47;5048882;28;20024;-76
2022/10/17 04:42:37;;;;;;;18.65;11.85;;;;;;;14.16;100.00;101438.38;5047424;28;20047;-76
2022/10/17 04:45:04;;;;;;;18.75;12.88;;;;;;;14.09;100.00;101440.03;5066958;28;20111;-78
2022/10/17 04:47:29;;;;;;;24.13;12.70;;;;;;;14.21;100.00;101436.09;5053091;28;20405;-76
2022/10/17 04:49:55;;;;;;;26.33;12.50;;;;;;;14.25;100.00;101441.00;5064779;28;20029;-76
2022/10/17 04:52:21;;;;;;;21.02;10.30;;;;;;;14.18;100.00;101441.69;5067322;28;20059;-76
2022/10/17 04:54:48;;;;;;;19.23;9.73;;;;;;;14.36;100.00;101444.09;5046964;28;20032;-78
2022/10/17 04:57:14;;;;;;;21.30;8.95;;;;;;;14.39;100.00;101438.56;5059388;28;20032;-76
2022/10/17 04:59:42;;;;;;;13.60;8.75;;;;;;;14.35;100.00;101452.06;5061682;28;20024;-77
2022/10/17 05:02:20;;;;;;;18.42;9.13;;;;;;;14.28;100.00;101451.09;5080306;28;20056;-77
2022/10/17 05:04:46;;;;;;;16.83;9.93;;;;;;;14.18;100.00;101459.94;5060612;28;20677;-76
2022/10/17 05:07:12;;;;;;;17.45;10.40;;;;;;;14.15;100.00;101457.63;5049239;28;20413;-78
2022/10/17 05:09:57;;;;;;;20.42;10.40;;;;;;;14.10;100.00;101482.56;5072508;28;20133;-78
2022/10/17 05:12:23;;;;;;;14.23;9.85;;;;;;;14.02;100.00;101480.78;5048387;28;20072;-77
2022/10/17 05:14:49;;;;;;;12.32;8.75;;;;;;;13.94;100.00;101488.59;5059645;28;20041;-77
2022/10/17 05:17:14;;;;;;;17.67;9.25;;;;;;;13.93;100.00;101485.16;5048206;28;20640;-77
2022/10/17 05:19:40;;;;;;;15.10;8.85;;;;;;;14.02;100.00;101475.56;5047199;28;20033;-78
2022/10/17 05:22:06;;;;;;;14.75;8.40;;;;;;;14.11;100.00;101489.41;5062292;28;20037;-76
2022/10/17 05:24:32;;;;;;;12.88;8.57;;;;;;;14.10;100.00;101493.81;5045836;28;20394;-76
2022/10/17 05:26:57;;;;;;;12.60;8.93;;;;;;;14.10;100.00;101488.59;5066159;28;20393;-77
2022/10/17 05:29:23;;;;;;;14.10;8.18;;;;;;;14.08;100.00;101500.19;5064690;28;20033;-77
2022/10/17 05:31:53;;;;;;;15.82;9.07;;;;;;;14.11;100.00;101502.44;5047875;28;20060;-77
2022/10/17 05:34:19;;;;;;;24.40;13.27;;;;;;;14.06;100.00;101495.13;5064172;28;20029;-76
2022/10/17 05:36:45;;;;;;;29.20;17.60;;;;;;;14.08;100.00;101493.16;5048108;28;20112;-75
2022/10/17 05:39:13;;;;;;;25.77;15.95;;;;;;;14.09;100.00;101489.59;5050546;28;20121;-77
2022/10/17 05:41:40;;;;;;;19.67;12.90;;;;;;;14.09;100.00;101493.97;5047259;28;20036;-75
2022/10/17 05:44:05;;;;;;;14.70;9.82;;;;;;;14.15;100.00;101493.34;5066157;28;20032;-76
2022/10/17 05:46:40;;;;;;;14.52;7.50;;;;;;;14.19;100.00;101487.63;5060581;28;20074;-78
2022/10/17 05:49:05;;;;;;;11.95;7.65;;;;;;;14.19;100.00;101469.38;5061872;28;20032;-78
2022/10/17 05:51:32;;;;;;;14.73;8.25;;;;;;;14.14;100.00;101481.28;5065399;28;20044;-76
2022/10/17 05:54:00;;;;;;;10.88;7.53;;;;;;;14.22;100.00;101473.44;5064969;28;20037;-76
2022/10/17 05:56:27;;;;;;;15.45;8.23;;;;;;;14.14;100.00;101489.91;5064424;28;20482;-77
2022/10/17 05:58:53;;;;;;;16.25;9.00;;;;;;;14.26;100.00;101485.19;5073316;28;20017;-78
2022/10/17 06:01:29;;;;;;;14.15;7.88;;;;;;;14.20;100.00;101480.59;5066540;28;20051;-78
2022/10/17 06:03:54;;;;;;;16.48;8.07;;;;;;;14.18;100.00;101475.56;5043496;28;20497;-77
2022/10/17 06:06:20;;;;;;;18.80;8.23;;;;;;;14.20;100.00;101472.78;5063814;28;20032;-76
2022/10/17 06:08:47;;;;;;;16.23;7.63;;;;;;;14.17;100.00;101480.94;5060820;28;20028;-77
2022/10/17 06:11:20;;;;;;;;;;;;;;;14.20;100.00;101483.22;5060358;28;20119;-78
2022/10/17 06:13:45;;;;;;;12.18;7.65;;;;;;;14.16;100.00;101493.16;5063058;28;20023;-78
2022/10/17 06:16:20;;;;;;;15.85;7.45;;;;;;;14.18;100.00;101499.06;5079753;28;20078;-75
2022/10/17 06:18:45;;;;;;;15.40;8.63;;;;;;;14.34;100.00;101486.97;5074191;28;20021;-77
2022/10/17 06:21:15;;;;;;;13.40;7.65;;;;;;;14.29;100.00;101484.84;5079898;28;20029;-78
2022/10/17 06:23:44;;;;;;;15.65;8.20;;;;;;;14.29;100.00;101484.03;5062314;28;20037;-78
2022/10/17 06:26:14;;;;;;;13.57;7.30;;;;;;;14.25;100.00;101501.81;5046049;28;20093;-77
2022/10/17 06:28:41;;;;;;;9.70;7.18;;;;;;;14.37;100.00;101503.13;5059007;28;20485;-77
2022/10/17 06:31:09;;;;;;;12.88;8.95;;;;;;;14.39;100.00;101497.72;5063741;28;20123;-77
2022/10/17 06:33:37;;;;;;;13.02;7.75;;;;;;;14.54;100.00;101496.09;5063637;28;20120;-79
2022/10/17 06:36:09;;;;;;;14.07;7.05;;;;;;;14.48;100.00;101498.53;5055718;28;20101;-83
2022/10/17 06:38:35;;;;;;;17.45;8.57;;;;;;;14.54;100.00;101503.09;5048131;28;20033;-79
2022/10/17 06:41:09;;;;;;;15.50;9.25;;;;;;;14.59;100.00;101501.66;5048011;28;20040;-78
2022/10/17 06:43:35;;;;;;;27.80;10.98;;;;;;;14.60;100.00;101516.34;5047661;28;20033;-84
2022/10/17 06:46:20;;;;;;;16.23;9.55;;;;;;;14.56;100.00;101519.41;5083671;28;20059;-82
2022/10/17 06:48:57;;;;;;;22.25;10.20;;;;;;;14.56;100.00;101519.41;5043432;28;20060;-78
2022/10/17 06:51:43;;;;;;;14.38;8.57;;;;;;;14.70;100.00;101524.00;5061824;28;20770;-79
2022/10/17 06:54:12;;;;;;;21.70;8.55;;;;;;;14.72;100.00;101539.50;5065941;28;20478;-76
2022/10/17 06:56:46;;;;;;;20.55;10.27;;;;;;;14.69;100.00;101526.75;5063241;28;20439;-77
2022/10/17 06:59:30;;;;;;;16.75;9.82;;;;;;;14.78;100.00;101525.78;5065545;28;20127;-77
2022/10/17 07:02:05;;;;;;;16.13;10.05;;;;;;;14.79;100.00;101530.84;5076766;28;20629;-75
2022/10/17 07:04:31;;;;;;;14.18;8.52;;;;;;;14.88;100.00;101531.63;5038480;28;20432;-77
2022/10/17 07:06:56;;;;;;;19.58;9.43;;;;;;;15.01;100.00;101519.84;5066938;28;20063;-77
2022/10/17 07:09:26;;;;;;;14.55;8.38;;;;;;;15.03;100.00;101518.72;5046434;28;20460;-78
2022/10/17 07:11:52;;;;;;;11.57;7.63;;;;;;;15.19;100.00;101515.22;5060484;28;20754;-75
2022/10/17 07:14:17;;;;;;;13.48;7.43;;;;;;;15.09;100.00;101520.66;5061598;28;20028;-82
2022/10/17 07:16:44;;;;;;;16.45;8.48;;;;;;;15.23;100.00;101521.72;5064971;28;20181;-76
2022/10/17 07:19:21;;;;;;;16.50;7.70;;;;;;;15.18;100.00;101522.25;5059290;28;20108;-79
2022/10/17 07:21:48;;;;;;;13.75;6.85;;;;;;;15.16;100.00;101534.66;5096043;28;20029;-78
2022/10/17 07:24:14;;;;;;;9.95;6.80;;;;;;;15.18;100.00;101527.47;5039079;28;20028;-77
2022/10/17 07:26:44;;;;;;;10.13;7.15;;;;;;;15.30;100.00;101524.50;5067926;28;20033;-77
2022/10/17 07:29:09;;;;;;;14.80;6.85;;;;;;;15.32;100.00;101523.34;5089179;28;20030;-76
2022/10/17 07:31:39;;;;;;;13.38;6.85;;;;;;;15.48;100.00;101525.06;5071168;28;20025;-78
2022/10/17 07:34:04;;;;;;;14.80;7.13;;;;;;;15.57;100.00;101524.03;5061251;28;20025;-75
2022/10/17 07:36:30;;;;;;;11.25;7.50;;;;;;;15.60;100.00;101520.28;5060844;28;20047;-77
2022/10/17 07:38:57;;;;;;;9.73;6.95;;;;;;;15.73;100.00;101524.94;5077863;28;20029;-76
2022/10/17 07:41:24;;;;;;;15.68;7.25;;;;;;;15.91;100.00;101524.69;5051399;28;20067;-78
2022/10/17 07:43:49;;;;;;;12.15;6.20;;;;;;;16.10;100.00;101524.22;5060204;28;20025;-81
2022/10/17 07:46:19;;;;;;;10.68;5.80;;;;;;;16.28;100.00;101531.78;5044065;28;20028;-75
2022/10/17 07:48:44;;;;;;;11.80;6.40;;;;;;;16.49;100.00;101548.63;5044720;28;20037;-82
2022/10/17 07:51:10;;;;;;;12.23;6.00;;;;;;;16.75;100.00;101550.84;5044584;28;20032;-77
2022/10/17 07:53:37;;;;;;;17.15;6.00;;;;;;;16.91;100.00;101555.97;5043005;28;20036;-78
2022/10/17 07:56:07;;;;;;;10.63;5.70;;;;;;;17.06;100.00;101555.13;5045542;28;20086;-77
2022/10/17 07:58:34;;;;;;;10.85;5.38;;;;;;;17.24;100.00;101560.84;5046269;28;20145;-75
2022/10/17 08:01:03;;;;;;;12.40;5.80;;;;;;;17.49;99.66;101556.09;5066349;28;20063;-77
2022/10/17 08:03:28;;;;;;;18.13;6.88;;;;;;;17.86;96.69;101551.72;5060061;28;20024;-81
2022/10/17 08:05:59;;;;;;;19.20;5.95;;;;;;;18.06;94.38;101554.56;5067671;28;20826;-76
2022/10/17 08:08:24;;;;;;;10.45;4.90;;;;;;;18.12;93.10;101555.63;5066121;28;20041;-76
2022/10/17 08:10:50;;;;;;;11.52;5.30;;;;;;;18.17;92.32;101552.41;5062824;28;20044;-80
2022/10/17 08:13:15;;;;;;;10.60;5.20;;;;;;;17.89;94.17;101566.25;5076084;28;20040;-78
2022/10/17 08:15:41;;;;;;;12.20;5.22;;;;;;;18.16;93.25;101563.91;5049904;28;20036;-76
2022/10/17 08:18:06;;;;;;;10.98;5.57;;;;;;;18.12;93.86;101570.53;5062648;28;20032;-75
2022/10/17 08:20:32;;;;;;;12.02;5.32;;;;;;;18.43;92.60;101568.41;5063434;28;20485;-80
2022/10/17 08:22:57;;;;;;;11.63;4.72;;;;;;;18.73;90.07;101568.22;5068915;28;20052;-76
2022/10/17 08:25:23;;;;;;;13.48;5.63;;;;;;;18.81;90.29;101569.91;5071154;28;20032;-77
2022/10/17 08:27:49;;;;;;;12.32;4.60;;;;;;;18.99;88.97;101580.75;5057103;28;20091;-76
2022/10/17 08:30:15;;;;;;;9.52;4.50;;;;;;;18.80;89.53;101584.88;5065557;28;20033;-77
2022/10/17 08:32:41;;;;;;;9.98;5.25;;;;;;;18.67;90.69;101587.38;5072258;28;20047;-77
2022/10/17 08:35:07;;;;;;;14.60;6.03;;;;;;;18.81;90.87;101597.00;5065157;28;20028;-77
2022/10/17 08:37:33;;;;;;;14.52;4.68;;;;;;;18.76;90.49;101601.16;5067373;28;20523;-76
2022/10/17 08:39:58;;;;;;;15.45;4.75;;;;;;;18.72;90.36;101595.47;5057523;28;20033;-80
2022/10/17 08:42:37;;;;;;;9.85;4.25;;;;;;;18.74;90.54;101598.75;5065599;28;21491;-77
2022/10/17 08:45:21;;;;;;;11.27;4.20;;;;;;;18.43;91.93;101605.16;5060629;28;23343;-74
2022/10/17 08:47:53;;;;;;;6.82;4.13;;;;;;;18.33;94.01;101606.47;5077570;28;20032;-76
2022/10/17 08:50:37;;;;;;;12.38;4.30;;;;;;;18.51;93.15;101603.41;5049626;28;20040;-80
2022/10/17 08:53:21;;;;;;;13.02;4.63;;;;;;;18.56;93.48;101601.03;5070640;28;20403;-76
2022/10/17 08:55:48;;;;;;;11.32;4.18;;;;;;;18.43;95.17;101613.03;5059993;28;20033;-79
2022/10/17 08:58:31;;;;;;;8.00;4.10;;;;;;;18.75;93.31;101612.69;5047461;28;20094;-77
2022/10/17 09:01:08;;;;;;;10.10;3.97;;;;;;;18.91;93.12;101622.97;5061367;28;20490;-76
2022/10/17 09:04:01;;;;;;;12.10;4.90;;;;;;;18.81;91.06;101630.34;5043745;28;20041;-82
2022/10/17 09:06:45;;;;;;;8.32;4.45;;;;;;;18.80;92.18;101626.91;5047328;28;20029;-78
2022/10/17 09:09:13;;;;;;;10.15;4.28;;;;;;;18.65;91.99;101626.97;5061182;28;20040;-76
2022/10/17 09:11:44;;;;;;;9.90;4.25;;;;;;;18.59;92.32;101625.09;5060702;28;20036;-75
2022/10/17 09:14:56;;;;;;;9.35;4.13;;;;;;;18.48;92.39;101630.84;5063188;28;20075;-76
2022/10/17 09:17:43;;;;;;;11.95;4.80;;;;;;;18.37;93.33;101636.59;5063807;28;20052;-77
2022/10/17 09:20:18;;;;;;;8.80;3.80;;;;;;;18.32;93.87;101642.41;5043287;28;20358;-80
2022/10/17 09:22:50;;;;;;;14.20;4.40;;;;;;;18.42;94.05;101647.34;5045149;28;20068;-79
2022/10/17 09:25:18;;;;;;;10.65;4.65;;;;;;;18.36;93.78;101655.97;5063319;28;20123;-76
2022/10/17 09:28:03;;;;;;;9.77;4.43;;;;;;;18.26;94.56;101654.47;5047884;28;20508;-77
2022/10/17 09:30:41;;;;;;;10.90;4.72;;;;;;;18.22;95.53;101657.66;5076956;28;20068;-78
2022/10/17 09:33:13;;;;;;;11.07;4.20;;;;;;;18.23;95.83;101659.25;5051346;28;20032;-77
2022/10/17 09:35:40;;;;;;;13.00;4.63;;;;;;;18.30;95.18;101657.53;5045297;28;20493;-76
2022/10/17 09:38:20;;;;;;;7.47;4.57;;;;;;;18.19;95.89;101663.25;5054177;28;20047;-77
2022/10/17 09:40:59;;;;;;;12.80;4.45;;;;;;;18.21;96.88;101662.06;5044494;28;20028;-76
2022/10/17 09:43:25;;;;;;;9.98;4.72;;;;;;;18.13;97.37;101675.31;5058368;28;20249;-77
2022/10/17 09:46:05;;;;;;;9.85;4.80;;;;;;;18.06;98.50;101679.66;5045871;28;20024;-79
2022/10/17 09:48:38;;;;;;;10.90;4.30;;;;;;;18.00;99.80;101677.78;5068737;28;20037;-77
2022/10/17 09:51:06;;;;;;;9.05;3.92;;;;;;;18.02;99.20;101687.09;5054256;28;20029;-77
2022/10/17 09:53:46;;;;;;;7.72;3.88;;;;;;;18.00;99.13;101690.91;5044543;28;20032;-79
2022/10/17 09:56:17;;;;;;;9.15;4.30;;;;;;;17.89;100.00;101695.66;5091760;28;20062;-77
2022/10/17 09:58:48;;;;;;;10.80;4.57;;;;;;;17.83;100.00;101692.88;5064964;28;20028;-77
2022/10/17 10:01:17;;;;;;;13.02;4.93;;;;;;;18.00;100.00;101694.34;5041956;28;20032;-75
2022/10/17 10:03:43;;;;;;;11.20;4.30;;;;;;;17.95;99.35;101698.50;5061312;28;20064;-77
2022/10/17 10:06:19;;;;;;;9.30;4.35;;;;;;;17.94;100.00;101678.53;5039890;28;20083;-77
2022/10/17 10:08:54;;;;;;;14.85;4.63;;;;;;;18.02;100.00;101676.59;5063160;28;20043;-77
2022/10/17 10:11:56;;;;;;;8.82;4.90;;;;;;;18.08;100.00;101677.69;5070870;28;20056;-78
2022/10/17 10:14:27;;;;;;;14.93;4.72;;;;;;;18.19;99.50;101685.06;4996428;28;20066;-78
2022/10/17 10:16:53;;;;;;;7.53;5.00;;;;;;;18.23;100.00;101688.13;5031077;28;20045;-77
2022/10/17 10:19:48;;;;;;;10.40;4.22;;;;;;;18.34;100.00;101692.09;5054855;28;21661;-77
2022/10/17 10:22:18;;;;;;;10.85;4.65;;;;;;;18.43;98.68;101697.03;5054456;28;20029;-77
2022/10/17 10:24:44;;;;;;;9.57;4.47;;;;;;;18.42;98.71;101699.84;5057749;28;20040;-76
2022/10/17 10:27:15;;;;;;;7.65;3.97;;;;;;;18.38;99.67;101711.72;5059375;28;20035;-77
2022/10/17 10:29:48;;;;;;;8.57;4.07;;;;;;;18.38;100.00;101725.66;5061188;28;20047;-77
2022/10/17 10:32:22;;;;;;;6.90;4.00;;;;;;;18.41;100.00;101733.19;5052863;28;20032;-78
2022/10/17 10:35:17;;;;;;;8.07;3.83;;;;;;;18.50;100.00;101736.53;5065799;28;20048;-77
2022/10/17 10:37:47;;;;;;;9.80;4.60;;;;;;;18.52;100.00;101747.66;5083856;28;20029;-77
2022/10/17 10:40:42;;;;;;;9.45;3.95;;;;;;;18.49;100.00;101750.63;5083471;28;20024;-78
2022/10/17 10:43:22;;;;;;;10.13;4.30;;;;;;;18.57;99.82;101749.69;5057231;28;20051;-77
2022/10/17 10:45:47;;;;;;;8.30;4.13;;;;;;;18.59;98.29;101742.44;5043862;28;20037;-79
2022/10/17 10:48:16;;;;;;;6.65;3.83;;;;;;;18.49;99.56;101745.38;5059153;28;20039;-78
2022/10/17 10:50:48;;;;;;;6.18;3.75;;;;;;;18.42;100.00;101741.84;5086779;28;20098;-79
2022/10/17 10:53:44;;;;;;;8.80;3.88;;;;;;;18.35;100.00;101733.13;5040374;28;20035;-80
2022/10/17 10:56:22;;;;;;;9.50;4.15;;;;;;;18.36;100.00;101692.72;5037468;28;20043;-77
2022/10/17 10:58:53;;;;;;;14.70;4.18;;;;;;;18.38;100.00;101695.97;5060121;28;20037;-83
2022/10/17 11:01:36;;;;;;;12.00;4.40;;;;;;;18.28;100.00;101698.91;5071611;28;20048;-77
2022/10/17 11:04:14;;;;;;;13.32;5.45;;;;;;;18.47;100.00;101700.13;5094133;28;20573;-80
2022/10/17 11:06:43;;;;;;;8.23;5.05;;;;;;;18.39;100.00;101716.00;5056361;28;20037;-78
2022/10/17 11:09:43;;;;;;;8.63;4.75;;;;;;;18.37;100.00;101708.28;5057871;28;20047;-78
2022/10/17 11:12:11;;;;;;;11.38;4.38;;;;;;;18.30;100.00;101725.78;5052042;28;20071;-78
2022/10/17 11:14:43;;;;;;;13.50;5.03;;;;;;;18.24;100.00;101742.28;5067901;28;20535;-78
2022/10/17 11:17:20;;;;;;;11.97;4.83;;;;;;;18.22;100.00;101739.84;5076778;28;20123;-78
2022/10/17 11:20:00;;;;;;;9.43;4.55;;;;;;;18.17;100.00;101751.88;5054482;28;20083;-78
2022/10/17 11:22:30;;;;;;;7.78;4.63;;;;;;;18.14;100.00;101767.97;5066313;28;20032;-78
2022/10/17 11:25:20;;;;;;;10.70;4.75;;;;;;;18.12;100.00;101769.97;5058044;28;20494;-83
2022/10/17 11:27:45;;;;;;;8.40;4.90;;;;;;;18.14;100.00;101779.31;5046111;28;20033;-78
2022/10/17 11:30:15;;;;;;;11.32;4.75;;;;;;;18.16;100.00;101779.94;5052630;28;20389;-79
2022/10/17 11:32:48;;;;;;;7.43;4.53;;;;;;;18.24;100.00;101773.78;5065074;28;20037;-78